createdAt,value
2019-03-29T00:00:23.295Z,99.90
2019-03-29T00:02:53.098Z,99.90
2019-03-29T00:05:23.002Z,99.90
2019-03-29T00:07:52.767Z,99.90
2019-03-29T00:10:22.554Z,99.90
2019-03-29T00:12:52.460Z,99.90
2019-03-29T00:15:22.236Z,99.90
2019-03-29T00:17:52.080Z,99.90
2019-03-29T00:20:21.914Z,99.90
2019-03-29T00:22:51.679Z,99.90
2019-03-29T00:25:21.571Z,99.90
2019-03-29T00:27:51.347Z,99.90
2019-03-29T00:30:21.408Z,99.90
2019-03-29T00:32:51.986Z,99.90
2019-03-29T00:35:21.754Z,99.90
2019-03-29T00:37:53.770Z,99.90
2019-03-29T00:40:23.117Z,99.90
2019-03-29T00:42:53.137Z,99.90
2019-03-29T00:45:23.375Z,99.90
2019-03-29T00:47:53.442Z,99.90
2019-03-29T00:50:23.186Z,99.90
2019-03-29T00:52:52.984Z,99.90
2019-03-29T00:55:22.839Z,99.90
2019-03-29T00:57:52.612Z,99.90
2019-03-29T01:00:22.671Z,99.90
2019-03-29T01:02:52.523Z,99.90
2019-03-29T01:05:22.414Z,99.90
2019-03-29T01:07:52.352Z,99.90
2019-03-29T01:10:22.869Z,99.90
2019-03-29T01:12:52.788Z,99.90
2019-03-29T01:15:22.768Z,99.90
2019-03-29T01:17:52.562Z,99.90
2019-03-29T01:20:22.418Z,99.90
2019-03-29T01:22:52.275Z,99.90
2019-03-29T01:25:22.106Z,99.90
2019-03-29T01:27:52.011Z,99.90
2019-03-29T01:30:22.926Z,99.90
2019-03-29T01:32:52.978Z,99.90
2019-03-29T01:35:22.740Z,99.90
2019-03-29T01:37:52.627Z,99.90
2019-03-29T01:40:22.389Z,99.90
2019-03-29T01:42:52.127Z,99.90
2019-03-29T01:45:22.002Z,99.90
2019-03-29T01:47:51.726Z,99.90
2019-03-29T01:50:21.566Z,99.90
2019-03-29T01:52:51.435Z,99.90
2019-03-29T01:55:21.183Z,99.90
2019-03-29T01:57:50.945Z,99.90
2019-03-29T02:00:31.058Z,99.90
2019-03-29T02:03:00.924Z,99.90
2019-03-29T02:05:31.047Z,99.90
2019-03-29T02:08:00.928Z,99.90
2019-03-29T02:10:30.697Z,99.90
2019-03-29T02:13:00.725Z,99.90
2019-03-29T02:15:30.635Z,99.90
2019-03-29T02:18:00.832Z,99.90
2019-03-29T02:20:30.655Z,99.90
2019-03-29T02:23:00.466Z,99.90
2019-03-29T02:25:30.292Z,99.90
2019-03-29T02:28:00.138Z,99.90
2019-03-29T02:30:31.913Z,99.90
2019-03-29T02:33:01.385Z,99.90
2019-03-29T02:35:31.298Z,99.90
2019-03-29T02:38:01.173Z,99.90
2019-03-29T02:40:31.021Z,99.90
2019-03-29T02:43:00.904Z,99.90
2019-03-29T02:45:31.109Z,99.90
2019-03-29T02:48:01.011Z,99.90
2019-03-29T02:50:30.870Z,99.90
2019-03-29T02:53:00.809Z,99.90
2019-03-29T02:55:30.715Z,99.90
2019-03-29T02:58:00.727Z,99.90
2019-03-29T03:00:30.498Z,99.90
2019-03-29T03:03:00.244Z,99.90
2019-03-29T03:05:30.366Z,99.90
2019-03-29T03:08:00.218Z,99.90
2019-03-29T03:10:30.078Z,99.90
2019-03-29T03:12:59.975Z,99.90
2019-03-29T03:15:29.784Z,99.90
2019-03-29T03:17:59.599Z,99.90
2019-03-29T03:20:29.499Z,99.90
2019-03-29T03:22:59.268Z,99.90
2019-03-29T03:25:29.251Z,99.90
2019-03-29T03:27:59.331Z,99.90
2019-03-29T03:30:29.421Z,99.90
2019-03-29T03:32:59.289Z,99.90
2019-03-29T03:35:29.165Z,99.90
2019-03-29T03:37:59.051Z,99.90
2019-03-29T03:40:28.815Z,99.90
2019-03-29T03:42:58.902Z,99.90
2019-03-29T03:45:29.009Z,99.90
2019-03-29T03:47:58.924Z,99.90
2019-03-29T03:50:39.021Z,99.90
2019-03-29T03:53:09.370Z,99.90
2019-03-29T03:55:41.347Z,99.90
2019-03-29T03:58:12.578Z,99.90
2019-03-29T04:00:54.889Z,99.90
2019-03-29T04:03:25.285Z,99.90
2019-03-29T04:05:55.139Z,99.90
2019-03-29T04:08:24.993Z,99.90
2019-03-29T04:10:55.014Z,99.90
2019-03-29T04:13:25.281Z,99.90
2019-03-29T04:15:55.274Z,99.90
2019-03-29T04:18:25.110Z,99.90
2019-03-29T04:20:55.089Z,99.90
2019-03-29T04:23:24.942Z,99.90
2019-03-29T04:25:55.652Z,99.90
2019-03-29T04:28:25.620Z,99.90
2019-03-29T04:30:55.430Z,99.90
2019-03-29T04:33:25.182Z,99.90
2019-03-29T04:35:54.947Z,99.90
2019-03-29T04:38:24.822Z,99.90
2019-03-29T04:40:54.659Z,99.90
2019-03-29T04:43:24.499Z,99.90
2019-03-29T04:45:54.454Z,99.90
2019-03-29T04:48:24.385Z,99.90
2019-03-29T04:50:54.197Z,99.90
2019-03-29T04:53:24.005Z,99.90
2019-03-29T04:55:53.802Z,99.90
2019-03-29T04:58:23.585Z,99.90
2019-03-29T05:00:53.458Z,99.90
2019-03-29T05:03:23.278Z,99.90
2019-03-29T05:05:53.115Z,99.90
2019-03-29T05:08:22.964Z,99.90
2019-03-29T05:10:52.745Z,99.90
2019-03-29T05:13:22.572Z,99.90
2019-03-29T05:15:52.504Z,99.90
2019-03-29T05:18:22.454Z,99.90
2019-03-29T05:20:52.319Z,99.90
2019-03-29T05:23:22.203Z,99.90
2019-03-29T05:25:52.074Z,99.90
2019-03-29T05:28:21.834Z,99.90
2019-03-29T05:30:51.586Z,99.90
2019-03-29T05:33:21.339Z,99.90
2019-03-29T05:35:51.264Z,99.90
2019-03-29T05:38:21.021Z,99.90
2019-03-29T05:40:50.838Z,99.90
2019-03-29T05:43:23.667Z,99.90
2019-03-29T05:45:53.436Z,99.90
2019-03-29T05:48:23.273Z,99.90
2019-03-29T05:50:53.047Z,99.90
2019-03-29T05:53:22.814Z,99.90
2019-03-29T05:55:52.615Z,99.90
2019-03-29T05:58:22.491Z,99.90
2019-03-29T06:01:11.320Z,99.90
2019-03-29T06:03:41.191Z,99.90
2019-03-29T06:06:11.049Z,99.90
2019-03-29T06:08:40.944Z,99.90
2019-03-29T06:11:10.843Z,99.90
2019-03-29T06:13:40.734Z,99.90
2019-03-29T06:16:10.509Z,99.90
2019-03-29T06:18:40.327Z,99.90
2019-03-29T06:21:10.153Z,99.90
2019-03-29T06:23:39.999Z,99.90
2019-03-29T06:26:10.015Z,99.90
2019-03-29T06:28:39.819Z,99.90
2019-03-29T06:31:09.622Z,99.90
2019-03-29T06:33:39.562Z,99.90
2019-03-29T06:36:10.553Z,99.90
2019-03-29T06:38:41.699Z,99.90
2019-03-29T06:41:12.008Z,99.90
2019-03-29T06:43:41.903Z,99.90
2019-03-29T06:46:11.777Z,99.90
2019-03-29T06:48:41.638Z,99.90
2019-03-29T06:51:11.446Z,99.90
2019-03-29T06:53:41.229Z,99.90
2019-03-29T06:56:11.148Z,99.90
2019-03-29T06:58:43.927Z,99.90
2019-03-29T07:01:13.704Z,99.90
2019-03-29T07:03:43.572Z,99.90
2019-03-29T07:06:13.334Z,99.90
2019-03-29T07:08:43.187Z,99.90
2019-03-29T07:11:17.713Z,99.90
2019-03-29T07:13:56.716Z,99.90
2019-03-29T07:16:16.102Z,99.90
2019-03-29T07:18:45.862Z,98.80
2019-03-29T07:21:21.306Z,96.40
2019-03-29T07:23:47.176Z,95.50
2019-03-29T07:26:16.953Z,95.00
2019-03-29T07:28:46.863Z,92.20
2019-03-29T07:31:16.773Z,91.60
2019-03-29T07:33:46.624Z,91.20
2019-03-29T07:36:16.548Z,90.60
2019-03-29T07:38:46.394Z,90.20
2019-03-29T07:41:30.754Z,87.00
2019-03-29T07:43:47.669Z,90.10
2019-03-29T07:46:17.501Z,88.50
2019-03-29T07:48:47.351Z,83.90
2019-03-29T07:51:17.206Z,81.90
2019-03-29T07:53:47.131Z,80.20
2019-03-29T07:56:17.342Z,77.80
2019-03-29T07:58:47.194Z,76.40
2019-03-29T08:01:17.240Z,76.30
2019-03-29T08:03:47.185Z,73.80
2019-03-29T08:06:17.106Z,74.60
2019-03-29T08:08:46.992Z,70.40
2019-03-29T08:11:25.975Z,70.20
2019-03-29T08:13:48.392Z,69.60
2019-03-29T08:16:18.186Z,70.50
2019-03-29T08:18:47.974Z,66.90
2019-03-29T08:21:17.738Z,62.60
2019-03-29T08:23:47.803Z,63.50
2019-03-29T08:26:17.696Z,63.10
2019-03-29T08:28:47.639Z,65.70
2019-03-29T08:31:17.566Z,67.70
2019-03-29T08:33:47.432Z,68.70
2019-03-29T08:36:17.361Z,68.50
2019-03-29T08:38:47.208Z,68.20
2019-03-29T08:41:17.105Z,69.60
2019-03-29T08:43:46.890Z,69.60
2019-03-29T08:46:16.666Z,72.20
2019-03-29T08:48:46.713Z,76.70
2019-03-29T08:51:16.550Z,77.10
2019-03-29T08:53:46.371Z,72.90
2019-03-29T08:56:16.429Z,68.60
2019-03-29T08:58:46.677Z,65.40
2019-03-29T09:01:19.337Z,65.30
2019-03-29T09:04:02.703Z,65.80
2019-03-29T09:06:20.051Z,66.80
2019-03-29T09:08:50.217Z,65.70
2019-03-29T09:11:20.115Z,65.90
2019-03-29T09:13:49.859Z,64.70
2019-03-29T09:16:19.603Z,65.50
2019-03-29T09:18:49.411Z,67.80
2019-03-29T09:21:19.182Z,69.70
2019-03-29T09:23:49.227Z,69.10
2019-03-29T09:26:19.131Z,68.70
2019-03-29T09:28:48.974Z,66.30
2019-03-29T09:31:18.822Z,72.00
2019-03-29T09:33:49.803Z,72.70
2019-03-29T09:36:19.662Z,73.70
2019-03-29T09:38:51.741Z,75.10
2019-03-29T09:41:21.658Z,73.10
2019-03-29T09:43:54.260Z,68.50
2019-03-29T09:46:23.223Z,69.70
2019-03-29T09:48:53.150Z,71.70
2019-03-29T09:51:23.021Z,72.10
2019-03-29T09:53:53.260Z,71.20
2019-03-29T09:56:37.622Z,64.20
2019-03-29T09:58:54.665Z,63.80
2019-03-29T10:01:25.843Z,62.60
2019-03-29T10:03:55.688Z,65.10
2019-03-29T10:06:25.519Z,67.70
2019-03-29T10:11:55.427Z,64.20
2019-03-29T10:14:27.733Z,69.10
2019-03-29T10:16:59.651Z,69.50
2019-03-29T10:19:30.921Z,66.10
2019-03-29T10:22:00.799Z,66.00
2019-03-29T10:24:30.645Z,64.20
2019-03-29T10:27:00.439Z,65.30
2019-03-29T10:29:30.261Z,78.70
2019-03-29T10:32:00.289Z,92.90
2019-03-29T10:34:30.511Z,99.90
2019-03-29T10:37:00.343Z,99.90
2019-03-29T10:39:30.261Z,99.90
2019-03-29T10:42:00.115Z,99.90
2019-03-29T10:44:29.878Z,99.90
2019-03-29T10:46:59.799Z,99.90
2019-03-29T10:49:29.578Z,99.90
2019-03-29T10:51:59.337Z,99.90
2019-03-29T10:54:29.308Z,99.90
2019-03-29T10:56:59.080Z,99.90
2019-03-29T10:59:28.917Z,99.90
2019-03-29T11:01:58.790Z,99.90
2019-03-29T11:04:31.673Z,99.90
2019-03-29T11:07:00.218Z,99.90
2019-03-29T11:09:30.054Z,99.90
2019-03-29T11:12:00.028Z,99.90
2019-03-29T11:14:29.984Z,99.90
2019-03-29T11:16:59.848Z,99.90
2019-03-29T11:19:29.876Z,99.90
2019-03-29T11:22:18.483Z,99.90
2019-03-29T11:24:48.241Z,99.90
2019-03-29T11:27:18.076Z,99.90
2019-03-29T11:29:47.990Z,99.90
2019-03-29T11:32:17.837Z,99.90
2019-03-29T11:34:47.652Z,99.90
2019-03-29T11:37:17.528Z,99.90
2019-03-29T11:39:47.271Z,99.90
2019-03-29T11:42:17.079Z,99.90
2019-03-29T11:44:46.859Z,99.90
2019-03-29T11:47:16.628Z,99.90
2019-03-29T11:49:46.450Z,99.90
2019-03-29T11:52:16.265Z,99.90
2019-03-29T11:54:46.065Z,99.90
2019-03-29T11:57:15.975Z,99.90
2019-03-29T11:59:45.849Z,99.90
2019-03-29T12:02:30.224Z,99.90
2019-03-29T12:04:47.089Z,99.90
2019-03-29T12:07:17.201Z,99.90
2019-03-29T12:09:46.956Z,99.90
2019-03-29T12:12:16.873Z,99.90
2019-03-29T12:14:46.793Z,99.90
2019-03-29T12:17:16.547Z,99.90
2019-03-29T12:19:46.500Z,99.90
2019-03-29T12:22:16.374Z,99.90
2019-03-29T12:24:46.137Z,99.90
2019-03-29T12:27:15.902Z,99.90
2019-03-29T12:29:45.697Z,99.90
2019-03-29T12:32:15.455Z,99.90
2019-03-29T12:34:45.310Z,99.90
2019-03-29T12:37:15.355Z,99.90
2019-03-29T12:39:45.106Z,99.90
2019-03-29T12:42:15.004Z,99.90
2019-03-29T12:44:44.836Z,99.90
2019-03-29T12:47:14.588Z,99.90
2019-03-29T12:49:44.480Z,99.90
2019-03-29T12:52:14.302Z,99.90
2019-03-29T12:54:44.190Z,99.90
2019-03-29T12:57:14.041Z,99.90
2019-03-29T12:59:43.954Z,99.90
2019-03-29T13:02:13.783Z,99.90
2019-03-29T13:04:46.791Z,99.90
2019-03-29T13:07:15.151Z,99.90
2019-03-29T13:09:44.912Z,99.90
2019-03-29T13:12:14.795Z,99.90
2019-03-29T13:14:44.682Z,99.90
2019-03-29T13:17:14.651Z,99.90
2019-03-29T13:19:44.483Z,99.90
2019-03-29T13:22:14.514Z,99.90
2019-03-29T13:24:45.622Z,99.90
2019-03-29T13:27:15.654Z,99.90
2019-03-29T13:29:45.547Z,99.90
2019-03-29T13:32:15.517Z,99.90
2019-03-29T13:34:45.317Z,99.90
2019-03-29T13:37:15.223Z,99.90
2019-03-29T13:39:57.399Z,99.90
2019-03-29T13:42:27.182Z,99.90
2019-03-29T13:44:56.955Z,99.90
2019-03-29T13:47:26.782Z,99.90
2019-03-29T13:49:56.578Z,99.90
2019-03-29T13:52:26.567Z,99.90
2019-03-29T13:54:56.405Z,99.90
2019-03-29T13:57:26.250Z,99.90
2019-03-29T13:59:55.999Z,99.90
2019-03-29T14:02:25.884Z,99.90
2019-03-29T14:04:55.736Z,99.90
2019-03-29T14:07:25.667Z,99.90
2019-03-29T14:09:55.669Z,99.90
2019-03-29T14:12:25.448Z,99.90
2019-03-29T14:14:55.301Z,99.90
2019-03-29T14:17:25.186Z,99.90
2019-03-29T14:19:55.050Z,99.90
2019-03-29T14:22:24.903Z,99.90
2019-03-29T14:24:54.805Z,99.90
2019-03-29T14:27:27.847Z,99.90
2019-03-29T14:30:04.374Z,99.90
2019-03-29T14:32:41.338Z,99.90
2019-03-29T14:35:11.428Z,99.90
2019-03-29T14:37:41.171Z,99.90
2019-03-29T14:40:11.824Z,99.90
2019-03-29T14:42:41.684Z,99.90
2019-03-29T14:45:11.753Z,99.90
2019-03-29T14:47:43.842Z,99.90
2019-03-29T14:50:13.473Z,99.90
2019-03-29T14:52:45.768Z,99.90
2019-03-29T14:55:15.578Z,99.90
2019-03-29T14:57:45.370Z,99.90
2019-03-29T15:00:15.772Z,99.90
2019-03-29T15:02:45.565Z,99.90
2019-03-29T15:05:15.730Z,99.90
2019-03-29T15:07:45.490Z,99.90
2019-03-29T15:10:26.703Z,99.90
2019-03-29T15:12:57.415Z,99.90
2019-03-29T15:15:28.816Z,99.90
2019-03-29T15:17:58.659Z,99.90
2019-03-29T15:20:28.489Z,99.90
2019-03-29T15:22:58.533Z,99.90
2019-03-29T15:25:28.410Z,99.90
2019-03-29T15:27:58.374Z,99.90
2019-03-29T15:30:28.412Z,99.90
2019-03-29T15:32:58.315Z,99.90
2019-03-29T15:35:28.074Z,99.90
2019-03-29T15:37:58.129Z,99.90
2019-03-29T15:40:28.014Z,99.90
2019-03-29T15:42:57.825Z,99.90
2019-03-29T15:45:27.746Z,99.90
2019-03-29T15:47:57.636Z,99.90
2019-03-29T15:50:27.469Z,99.90
2019-03-29T15:52:57.442Z,99.90
2019-03-29T15:55:27.524Z,99.90
2019-03-29T15:57:57.357Z,99.90
2019-03-29T16:00:27.228Z,99.90
2019-03-29T16:02:57.071Z,99.90
2019-03-29T16:05:28.005Z,99.90
2019-03-29T16:07:57.867Z,99.90
2019-03-29T16:10:27.629Z,99.90
2019-03-29T16:12:57.490Z,99.90
2019-03-29T16:15:34.921Z,99.90
2019-03-29T16:17:58.835Z,99.90
2019-03-29T16:20:28.666Z,99.90
2019-03-29T16:22:58.452Z,99.90
2019-03-29T16:25:28.355Z,99.90
2019-03-29T16:27:58.203Z,99.90
2019-03-29T16:30:28.054Z,99.90
2019-03-29T16:32:57.868Z,99.90
2019-03-29T16:35:27.705Z,99.90
2019-03-29T16:37:58.451Z,99.90
2019-03-29T16:40:30.881Z,99.90
2019-03-29T16:42:59.801Z,99.90
2019-03-29T16:45:29.753Z,99.90
2019-03-29T16:47:59.668Z,99.90
2019-03-29T16:50:29.479Z,99.90
2019-03-29T16:52:59.411Z,99.90
2019-03-29T16:55:29.222Z,99.90
2019-03-29T16:57:59.074Z,99.90
2019-03-29T17:00:28.998Z,99.90
2019-03-29T17:02:58.950Z,99.90
2019-03-29T17:05:28.846Z,99.90
2019-03-29T17:07:58.802Z,99.90
2019-03-29T17:10:28.822Z,99.90
2019-03-29T17:12:58.674Z,99.90
2019-03-29T17:15:28.623Z,99.90
2019-03-29T17:17:58.522Z,99.90
2019-03-29T17:20:28.386Z,99.90
2019-03-29T17:22:58.225Z,99.90
2019-03-29T17:25:29.610Z,99.90
2019-03-29T17:27:59.404Z,99.90
2019-03-29T17:30:39.947Z,99.90
2019-03-29T17:33:09.721Z,99.90
2019-03-29T17:35:40.901Z,99.90
2019-03-29T17:38:12.309Z,99.90
2019-03-29T17:40:42.206Z,99.90
2019-03-29T17:43:12.091Z,99.90
2019-03-29T17:45:44.971Z,99.90
2019-03-29T17:48:19.264Z,99.90
2019-03-29T17:50:49.204Z,99.90
2019-03-29T17:53:19.041Z,99.90
2019-03-29T17:55:49.611Z,99.90
2019-03-29T17:58:19.613Z,99.90
2019-03-29T18:00:49.542Z,99.90
2019-03-29T18:03:19.593Z,99.90
2019-03-29T18:05:49.693Z,99.90
2019-03-29T18:08:19.580Z,99.90
2019-03-29T18:10:49.366Z,99.90
2019-03-29T18:13:19.233Z,99.90
2019-03-29T18:15:49.114Z,99.90
2019-03-29T18:18:18.952Z,99.90
2019-03-29T18:20:49.267Z,99.90
2019-03-29T18:23:19.241Z,99.90
2019-03-29T18:25:49.123Z,99.90
2019-03-29T18:28:19.102Z,99.90
2019-03-29T18:30:48.910Z,99.90
2019-03-29T18:33:19.876Z,99.90
2019-03-29T18:35:49.975Z,99.90
2019-03-29T18:38:20.296Z,99.90
2019-03-29T18:40:53.187Z,99.90
2019-03-29T18:43:23.134Z,99.90
2019-03-29T18:46:11.826Z,99.90
2019-03-29T18:48:41.668Z,99.90
2019-03-29T18:51:11.498Z,99.90
2019-03-29T18:53:41.464Z,99.90
2019-03-29T18:56:11.332Z,99.90
2019-03-29T18:58:41.094Z,99.90
2019-03-29T19:01:10.927Z,99.90
2019-03-29T19:03:40.868Z,99.90
2019-03-29T19:06:11.144Z,99.90
2019-03-29T19:08:40.944Z,99.90
2019-03-29T19:11:10.812Z,99.90
2019-03-29T19:13:41.916Z,99.90
2019-03-29T19:16:11.968Z,99.90
2019-03-29T19:18:41.850Z,99.90
2019-03-29T19:21:11.703Z,99.90
2019-03-29T19:23:42.865Z,99.90
2019-03-29T19:26:12.753Z,99.90
2019-03-29T19:28:42.842Z,99.90
2019-03-29T19:31:14.852Z,99.90
2019-03-29T19:33:45.847Z,99.90
2019-03-29T19:36:15.775Z,99.90
2019-03-29T19:38:47.565Z,99.90
2019-03-29T19:41:17.114Z,99.90
2019-03-29T19:43:49.679Z,99.90
2019-03-29T19:46:19.479Z,99.90
2019-03-29T19:48:49.753Z,99.90
2019-03-29T19:51:19.772Z,99.90
2019-03-29T19:53:49.687Z,99.90
2019-03-29T19:56:21.751Z,99.90
2019-03-29T19:58:51.822Z,99.90
2019-03-29T20:01:21.955Z,99.90
2019-03-29T20:03:51.912Z,99.90
2019-03-29T20:06:21.918Z,99.90
2019-03-29T20:08:51.796Z,99.90
2019-03-29T20:11:21.769Z,99.90
2019-03-29T20:13:51.668Z,99.90
2019-03-29T20:16:21.474Z,99.90
2019-03-29T20:18:51.320Z,99.90
2019-03-29T20:21:21.234Z,99.90
2019-03-29T20:23:51.214Z,99.90
2019-03-29T20:26:21.437Z,99.90
2019-03-29T20:28:51.252Z,99.90
2019-03-29T20:31:21.088Z,99.90
2019-03-29T20:33:54.993Z,99.90
2019-03-29T20:36:24.986Z,99.90
2019-03-29T20:38:54.928Z,99.90
2019-03-29T20:41:24.842Z,99.90
2019-03-29T20:44:03.286Z,99.90
2019-03-29T20:46:33.200Z,99.90
2019-03-29T20:49:03.175Z,99.90
2019-03-29T20:51:33.028Z,99.90
2019-03-29T20:54:02.968Z,99.90
2019-03-29T20:56:35.208Z,99.90
2019-03-29T20:59:07.282Z,99.90
2019-03-29T21:01:37.179Z,99.90
2019-03-29T21:04:07.087Z,99.90
2019-03-29T21:06:39.439Z,99.90
2019-03-29T21:09:10.046Z,99.90
2019-03-29T21:11:39.981Z,99.90
2019-03-29T21:14:09.991Z,99.90
2019-03-29T21:16:42.139Z,99.90
2019-03-29T21:19:12.003Z,99.90
2019-03-29T21:21:41.907Z,99.90
2019-03-29T21:24:11.855Z,99.90
2019-03-29T21:26:41.864Z,99.90
2019-03-29T21:29:11.735Z,99.90
2019-03-29T21:31:42.291Z,99.90
2019-03-29T21:34:12.221Z,99.90
2019-03-29T21:36:42.285Z,99.90
2019-03-29T21:39:14.403Z,99.90
2019-03-29T21:41:45.512Z,99.90
2019-03-29T21:44:15.624Z,99.90
2019-03-29T21:46:45.408Z,99.90
2019-03-29T21:49:15.258Z,99.90
2019-03-29T21:51:45.284Z,99.90
2019-03-29T21:54:17.559Z,99.90
2019-03-29T21:56:47.663Z,99.90
2019-03-29T21:59:17.729Z,99.90
2019-03-29T22:01:47.886Z,99.90
2019-03-29T22:04:17.712Z,99.90
2019-03-29T22:06:47.679Z,99.90
2019-03-29T22:09:17.592Z,99.90
2019-03-29T22:11:47.450Z,99.90
2019-03-29T22:14:17.334Z,99.90
2019-03-29T22:16:47.208Z,99.90
2019-03-29T22:19:17.036Z,99.90
2019-03-29T22:21:47.188Z,99.90
2019-03-29T22:24:17.313Z,99.90
2019-03-29T22:26:47.301Z,99.90
2019-03-29T22:29:17.139Z,99.90
2019-03-29T22:31:46.917Z,99.90
2019-03-29T22:34:16.757Z,99.90
2019-03-29T22:36:47.123Z,99.90
2019-03-29T22:39:17.069Z,99.90
2019-03-29T22:41:47.178Z,99.90
2019-03-29T22:44:17.067Z,99.90
2019-03-29T22:46:47.198Z,99.90
2019-03-29T22:49:17.213Z,99.90
2019-03-29T22:51:47.176Z,99.90
2019-03-29T22:54:17.116Z,99.90
2019-03-29T22:56:47.216Z,99.90
2019-03-29T22:59:17.169Z,99.90
2019-03-29T23:01:48.669Z,99.90
2019-03-29T23:04:18.523Z,99.90
2019-03-29T23:06:48.634Z,99.90
2019-03-29T23:09:18.524Z,99.90
2019-03-29T23:11:48.418Z,99.90
2019-03-29T23:14:18.334Z,99.90
2019-03-29T23:16:48.158Z,99.90
2019-03-29T23:19:18.020Z,99.90
2019-03-29T23:21:47.913Z,99.90
2019-03-29T23:24:17.702Z,99.90
2019-03-29T23:26:48.392Z,99.90
2019-03-29T23:29:18.304Z,99.90
2019-03-29T23:31:48.244Z,99.90
2019-03-29T23:34:17.984Z,99.90
2019-03-29T23:36:47.926Z,99.90
2019-03-29T23:39:17.910Z,99.90
2019-03-29T23:41:51.970Z,99.90
2019-03-29T23:44:21.920Z,99.90
2019-03-29T23:46:51.808Z,99.90
2019-03-29T23:49:21.820Z,99.90
2019-03-29T23:51:51.757Z,99.90
2019-03-29T23:54:21.680Z,99.90
2019-03-29T23:56:51.455Z,99.90
2019-03-29T23:59:21.307Z,99.90
